createdAt,value
2022-08-03T00:02:20.026Z,5.35
2022-08-03T00:04:48.849Z,5.50
2022-08-03T00:07:17.340Z,6.93
2022-08-03T00:09:45.757Z,5.70
2022-08-03T00:12:14.581Z,6.88
2022-08-03T00:14:43.428Z,5.43
2022-08-03T00:17:12.596Z,6.85
2022-08-03T00:19:41.057Z,4.90
2022-08-03T00:22:09.460Z,5.22
2022-08-03T00:24:37.969Z,5.78
2022-08-03T00:27:06.348Z,6.18
2022-08-03T00:29:59.478Z,5.35
2022-08-03T00:32:24.143Z,6.25
2022-08-03T00:34:57.213Z,5.13
2022-08-03T00:37:41.228Z,4.40
2022-08-03T00:40:14.962Z,7.32
2022-08-03T00:42:48.682Z,5.22
2022-08-03T00:45:21.974Z,6.57
2022-08-03T00:47:50.984Z,7.00
2022-08-03T00:50:22.823Z,6.15
2022-08-03T00:52:56.225Z,5.93
2022-08-03T00:55:25.776Z,6.07
2022-08-03T00:57:55.259Z,7.00
2022-08-03T01:00:26.016Z,6.93
2022-08-03T01:02:54.811Z,6.15
2022-08-03T01:05:25.198Z,4.90
2022-08-03T01:08:22.760Z,4.95
2022-08-03T01:11:19.149Z,7.90
2022-08-03T01:14:18.319Z,6.40
2022-08-03T01:16:59.288Z,4.93
2022-08-03T01:19:51.834Z,3.65
2022-08-03T01:22:59.153Z,4.88
2022-08-03T01:26:12.650Z,4.75
2022-08-03T01:28:50.221Z,5.45
2022-08-03T01:31:23.812Z,5.22
2022-08-03T01:33:59.200Z,5.82
2022-08-03T01:36:33.807Z,5.60
2022-08-03T01:39:09.247Z,5.88
2022-08-03T01:41:44.580Z,5.03
2022-08-03T01:44:29.177Z,6.57
2022-08-03T01:47:01.185Z,6.25
2022-08-03T01:49:33.563Z,5.28
2022-08-03T01:52:05.565Z,5.07
2022-08-03T01:54:44.111Z,5.38
2022-08-03T01:57:14.092Z,5.30
2022-08-03T01:59:44.669Z,5.00
2022-08-03T02:02:32.200Z,5.75
2022-08-03T02:05:05.930Z,7.47
2022-08-03T02:07:42.120Z,5.07
2022-08-03T02:10:13.435Z,4.72
2022-08-03T02:12:46.100Z,6.55
2022-08-03T02:15:16.728Z,6.55
2022-08-03T02:17:48.520Z,5.03
2022-08-03T02:22:54.575Z,5.70
2022-08-03T02:25:57.277Z,4.57
2022-08-03T02:28:35.204Z,6.75
2022-08-03T02:31:07.479Z,4.90
2022-08-03T02:33:43.206Z,5.55
2022-08-03T02:36:14.486Z,4.57
2022-08-03T02:38:46.450Z,5.28
2022-08-03T02:41:23.915Z,5.63
2022-08-03T02:44:05.584Z,5.22
2022-08-03T02:46:41.438Z,6.57
2022-08-03T02:49:40.551Z,3.88
2022-08-03T02:52:02.828Z,5.97
2022-08-03T02:54:33.023Z,5.95
2022-08-03T02:57:02.403Z,5.85
2022-08-03T02:59:32.190Z,5.20
2022-08-03T03:02:02.724Z,4.45
2022-08-03T03:04:32.204Z,5.72
2022-08-03T03:07:04.451Z,6.40
2022-08-03T03:09:40.471Z,5.28
2022-08-03T03:12:12.616Z,5.75
2022-08-03T03:14:41.160Z,5.47
2022-08-03T03:17:11.432Z,8.80
2022-08-03T03:19:41.385Z,7.20
2022-08-03T03:22:10.703Z,5.85
2022-08-03T03:24:41.465Z,4.88
2022-08-03T03:27:10.221Z,5.07
2022-08-03T03:29:45.599Z,6.05
2022-08-03T03:32:14.474Z,5.68
2022-08-03T03:34:44.226Z,6.68
2022-08-03T03:37:12.988Z,5.85
2022-08-03T03:39:41.498Z,6.80
2022-08-03T03:42:10.143Z,5.55
2022-08-03T03:44:38.711Z,6.70
2022-08-03T03:47:07.308Z,6.50
2022-08-03T03:49:36.422Z,5.15
2022-08-03T03:52:05.287Z,6.80
2022-08-03T03:54:43.499Z,5.75
2022-08-03T03:57:20.101Z,5.82
2022-08-03T03:59:49.063Z,5.88
2022-08-03T04:02:18.042Z,5.57
2022-08-03T04:05:25.141Z,6.00
2022-08-03T04:08:18.299Z,4.38
2022-08-03T04:11:00.445Z,6.18
2022-08-03T04:14:01.768Z,5.07
2022-08-03T04:16:34.449Z,5.82
2022-08-03T04:19:08.143Z,5.95
2022-08-03T04:21:43.446Z,6.45
2022-08-03T04:24:14.864Z,6.38
2022-08-03T04:26:49.626Z,5.90
2022-08-03T04:29:22.354Z,6.45
2022-08-03T04:31:54.640Z,5.15
2022-08-03T04:34:23.348Z,5.85
2022-08-03T04:36:57.947Z,5.25
2022-08-03T04:39:29.381Z,4.57
2022-08-03T04:42:17.059Z,6.18
2022-08-03T04:44:46.815Z,4.68
2022-08-03T04:47:16.343Z,6.00
2022-08-03T04:49:45.581Z,5.82
2022-08-03T04:52:15.151Z,5.65
2022-08-03T04:54:48.809Z,5.57
2022-08-03T04:57:22.527Z,3.97
2022-08-03T05:00:01.265Z,5.63
2022-08-03T05:02:32.038Z,5.43
2022-08-03T05:05:00.678Z,4.47
2022-08-03T05:07:35.508Z,6.35
2022-08-03T05:10:15.712Z,4.72
2022-08-03T05:12:48.119Z,4.88
2022-08-03T05:15:16.641Z,5.15
2022-08-03T05:17:45.145Z,5.30
2022-08-03T05:20:13.612Z,5.70
2022-08-03T05:22:47.333Z,6.93
2022-08-03T05:25:19.211Z,7.75
2022-08-03T05:27:49.427Z,5.03
2022-08-03T05:30:29.866Z,5.07
2022-08-03T05:33:03.451Z,5.57
2022-08-03T05:36:00.766Z,5.05
2022-08-03T05:38:28.798Z,5.57
2022-08-03T05:41:22.814Z,4.43
2022-08-03T05:43:55.971Z,5.13
2022-08-03T05:46:24.906Z,5.40
2022-08-03T05:48:53.544Z,4.93
2022-08-03T05:51:22.196Z,5.00
2022-08-03T05:53:50.737Z,4.53
2022-08-03T05:56:24.159Z,5.90
2022-08-03T05:58:53.293Z,5.45
2022-08-03T06:01:22.354Z,5.90
2022-08-03T06:03:52.132Z,5.70
2022-08-03T06:06:20.604Z,3.97
2022-08-03T06:08:49.241Z,5.82
2022-08-03T06:11:17.764Z,3.85
2022-08-03T06:13:46.312Z,4.75
2022-08-03T06:16:14.716Z,4.53
2022-08-03T06:18:44.215Z,4.00
2022-08-03T06:21:15.700Z,3.95
2022-08-03T06:23:54.726Z,7.05
2022-08-03T06:26:25.505Z,4.95
2022-08-03T06:28:54.950Z,4.57
2022-08-03T06:31:33.395Z,5.43
2022-08-03T06:34:33.190Z,4.10
2022-08-03T06:36:53.151Z,4.25
2022-08-03T06:39:23.676Z,5.60
2022-08-03T06:41:53.051Z,4.20
2022-08-03T06:44:21.685Z,3.92
2022-08-03T06:46:51.127Z,4.32
2022-08-03T06:49:19.664Z,4.38
2022-08-03T06:52:03.529Z,3.50
2022-08-03T06:54:36.253Z,3.25
2022-08-03T06:57:05.920Z,5.30
2022-08-03T07:00:09.555Z,3.92
2022-08-03T07:02:24.056Z,4.90
2022-08-03T07:04:56.667Z,3.30
2022-08-03T07:07:25.138Z,5.13
2022-08-03T07:09:57.182Z,4.55
2022-08-03T07:12:28.604Z,6.22
2022-08-03T07:15:01.365Z,5.03
2022-08-03T07:17:34.670Z,4.60
2022-08-03T07:20:08.263Z,6.45
2022-08-03T07:22:37.746Z,4.80
2022-08-03T07:25:07.584Z,4.00
2022-08-03T07:27:37.039Z,4.75
2022-08-03T07:30:08.028Z,4.13
2022-08-03T07:32:36.670Z,5.25
2022-08-03T07:35:24.759Z,4.40
2022-08-03T07:37:55.062Z,4.00
2022-08-03T07:40:23.974Z,3.70
2022-08-03T07:42:59.943Z,5.28
2022-08-03T07:45:30.148Z,5.13
2022-08-03T07:47:58.659Z,5.38
2022-08-03T07:50:27.199Z,5.47
2022-08-03T07:52:57.888Z,4.93
2022-08-03T07:55:28.615Z,6.05
2022-08-03T07:58:02.270Z,4.47
2022-08-03T08:00:31.427Z,4.88
2022-08-03T08:03:00.017Z,6.78
2022-08-03T08:05:29.421Z,5.47
2022-08-03T08:07:58.025Z,4.65
2022-08-03T08:10:28.790Z,4.35
2022-08-03T08:12:57.682Z,4.17
2022-08-03T08:15:26.203Z,7.32
2022-08-03T08:17:57.129Z,5.00
2022-08-03T08:20:30.732Z,5.30
2022-08-03T08:23:19.954Z,5.10
2022-08-03T08:25:58.111Z,4.07
2022-08-03T08:28:32.855Z,5.20
2022-08-03T08:31:02.281Z,5.00
2022-08-03T08:34:05.073Z,5.50
2022-08-03T08:36:19.606Z,6.97
2022-08-03T08:38:48.338Z,5.32
2022-08-03T08:41:17.286Z,5.25
2022-08-03T08:43:45.906Z,5.15
2022-08-03T08:46:22.744Z,6.68
2022-08-03T08:48:54.706Z,6.05
2022-08-03T08:51:59.081Z,4.17
2022-08-03T08:54:20.696Z,5.75
2022-08-03T08:56:55.937Z,6.25
2022-08-03T08:59:25.364Z,5.97
2022-08-03T09:01:57.980Z,4.40
2022-08-03T09:04:29.075Z,5.35
2022-08-03T09:07:18.779Z,4.50
2022-08-03T09:10:00.343Z,5.70
2022-08-03T09:12:43.009Z,5.38
2022-08-03T09:15:19.280Z,3.60
2022-08-03T09:17:51.258Z,4.43
2022-08-03T09:20:21.758Z,3.55
2022-08-03T09:23:24.934Z,4.82
2022-08-03T09:26:00.037Z,5.72
2022-08-03T09:29:01.143Z,4.10
2022-08-03T09:31:38.622Z,4.15
2022-08-03T09:34:09.112Z,4.45
2022-08-03T09:36:48.488Z,4.63
2022-08-03T09:39:28.674Z,4.85
2022-08-03T09:42:23.797Z,4.45
2022-08-03T09:44:53.158Z,6.10
2022-08-03T09:47:29.868Z,8.13
2022-08-03T09:50:04.606Z,5.55
2022-08-03T09:52:52.154Z,7.78
2022-08-03T09:56:33.080Z,5.72
2022-08-03T09:58:12.684Z,4.40
2022-08-03T10:01:04.584Z,6.47
2022-08-03T10:04:03.219Z,6.70
2022-08-03T10:06:28.792Z,4.65
2022-08-03T10:09:10.208Z,6.00
2022-08-03T10:11:42.125Z,6.25
2022-08-03T10:14:18.823Z,5.63
2022-08-03T10:16:49.685Z,7.20
2022-08-03T10:19:18.213Z,6.87
2022-08-03T10:21:51.217Z,4.75
2022-08-03T10:24:24.498Z,7.72
2022-08-03T10:27:00.730Z,6.60
2022-08-03T10:29:32.892Z,6.22
2022-08-03T10:32:05.394Z,6.55
2022-08-03T10:34:44.551Z,5.90
2022-08-03T10:37:17.530Z,9.95
2022-08-03T10:39:55.689Z,5.95
2022-08-03T10:42:27.132Z,9.05
2022-08-03T10:47:32.673Z,6.22
2022-08-03T10:50:02.040Z,6.68
2022-08-03T10:52:33.604Z,4.20
2022-08-03T10:55:47.845Z,4.43
2022-08-03T10:58:37.224Z,3.22
2022-08-03T11:01:10.581Z,4.20
2022-08-03T11:03:54.332Z,4.45
2022-08-03T11:06:25.535Z,4.88
2022-08-03T11:09:23.226Z,5.13
2022-08-03T11:11:51.874Z,5.18
2022-08-03T11:14:21.636Z,3.45
2022-08-03T11:17:06.043Z,6.32
2022-08-03T11:19:57.596Z,3.40
2022-08-03T11:22:54.455Z,5.63
2022-08-03T11:25:53.505Z,3.22
2022-08-03T11:28:26.269Z,6.15
2022-08-03T11:30:56.410Z,5.85
2022-08-03T11:33:31.656Z,4.78
2022-08-03T11:36:02.252Z,4.38
2022-08-03T11:38:30.836Z,4.63
2022-08-03T11:41:02.544Z,5.32
2022-08-03T11:43:35.135Z,4.63
2022-08-03T11:46:08.669Z,3.90
2022-08-03T11:48:45.272Z,3.30
2022-08-03T11:51:30.064Z,3.50
2022-08-03T11:53:59.908Z,3.35
2022-08-03T11:56:29.808Z,6.20
2022-08-03T11:59:19.989Z,4.05
2022-08-03T12:01:47.418Z,2.95
2022-08-03T12:04:16.265Z,6.32
2022-08-03T12:07:01.245Z,5.43
2022-08-03T12:09:29.904Z,6.10
2022-08-03T12:12:00.966Z,3.13
2022-08-03T12:17:19.376Z,2.75
2022-08-03T12:19:48.211Z,2.67
2022-08-03T12:22:17.159Z,4.97
2022-08-03T12:24:47.580Z,2.30
2022-08-03T12:27:24.276Z,4.05
2022-08-03T12:29:57.242Z,4.53
2022-08-03T12:32:31.298Z,4.22
2022-08-03T12:35:01.660Z,4.22
2022-08-03T12:37:31.267Z,3.28
2022-08-03T12:40:08.013Z,4.10
2022-08-03T12:42:39.932Z,3.83
2022-08-03T12:45:19.511Z,5.00
2022-08-03T12:47:56.837Z,3.58
2022-08-03T12:50:28.203Z,4.68
2022-08-03T12:52:58.372Z,4.30
2022-08-03T12:55:57.244Z,3.42
2022-08-03T12:58:34.917Z,3.28
2022-08-03T13:01:09.746Z,3.05
2022-08-03T13:03:42.115Z,3.13
2022-08-03T13:06:16.805Z,3.42
2022-08-03T13:08:48.144Z,2.90
2022-08-03T13:11:55.644Z,4.80
2022-08-03T13:14:13.541Z,3.35
2022-08-03T13:16:49.297Z,3.70
2022-08-03T13:19:18.013Z,4.05
2022-08-03T13:21:53.675Z,3.28
2022-08-03T13:24:33.664Z,2.53
2022-08-03T13:27:22.543Z,4.45
2022-08-03T13:29:52.882Z,2.45
2022-08-03T13:32:21.896Z,3.33
2022-08-03T13:34:52.396Z,3.28
2022-08-03T13:37:21.576Z,4.55
2022-08-03T13:39:59.692Z,3.33
2022-08-03T13:42:32.472Z,2.53
2022-08-03T13:45:02.128Z,3.00
2022-08-03T13:47:30.777Z,4.00
2022-08-03T13:50:01.468Z,3.53
2022-08-03T13:52:33.203Z,4.30
2022-08-03T13:55:03.623Z,3.38
2022-08-03T13:58:04.085Z,3.15
2022-08-03T14:00:28.232Z,3.22
2022-08-03T14:03:05.053Z,2.50
2022-08-03T14:05:35.990Z,3.22
2022-08-03T14:08:06.672Z,3.13
2022-08-03T14:10:37.743Z,3.33
2022-08-03T14:13:06.835Z,2.60
2022-08-03T14:15:37.571Z,4.03
2022-08-03T14:18:15.808Z,4.75
2022-08-03T14:20:49.031Z,3.58
2022-08-03T14:23:20.064Z,2.95
2022-08-03T14:25:51.532Z,4.43
2022-08-03T14:28:23.820Z,4.05
2022-08-03T14:30:53.780Z,2.25
2022-08-03T14:33:23.494Z,3.55
2022-08-03T14:35:52.194Z,3.45
2022-08-03T14:38:21.304Z,3.47
2022-08-03T14:40:50.434Z,3.10
2022-08-03T14:43:21.093Z,1.92
2022-08-03T14:45:53.854Z,4.97
2022-08-03T14:50:10.551Z,2.58
2022-08-03T14:51:13.449Z,2.42
2022-08-03T14:53:42.148Z,3.80
2022-08-03T14:56:11.036Z,2.40
2022-08-03T14:58:39.785Z,1.80
2022-08-03T15:02:05.354Z,2.88
2022-08-03T15:03:57.099Z,2.53
2022-08-03T15:06:25.583Z,2.67
2022-08-03T15:11:43.007Z,3.88
2022-08-03T15:14:13.468Z,2.67
2022-08-03T15:16:43.292Z,2.92
2022-08-03T15:20:01.029Z,2.47
2022-08-03T15:22:00.953Z,3.53
2022-08-03T15:24:29.855Z,2.42
2022-08-03T15:26:58.332Z,3.72
2022-08-03T15:30:07.237Z,3.05
2022-08-03T15:32:15.524Z,3.38
2022-08-03T15:34:50.352Z,2.95
2022-08-03T15:37:20.742Z,2.70
2022-08-03T15:40:00.151Z,2.65
2022-08-03T15:42:30.998Z,1.83
2022-08-03T15:44:59.832Z,1.95
2022-08-03T15:47:28.529Z,2.67
2022-08-03T15:49:57.319Z,1.83
2022-08-03T15:52:26.043Z,1.73
2022-08-03T15:54:54.629Z,2.67
2022-08-03T15:57:23.869Z,1.85
2022-08-03T15:59:52.660Z,2.53
2022-08-03T16:02:21.687Z,1.83
2022-08-03T16:04:50.272Z,2.65
2022-08-03T16:07:38.696Z,2.10
2022-08-03T16:10:07.779Z,1.65
2022-08-03T16:12:37.725Z,2.05
2022-08-03T16:15:07.162Z,2.15
2022-08-03T16:17:35.800Z,2.35
2022-08-03T16:20:10.841Z,2.58
2022-08-03T16:22:55.059Z,2.22
2022-08-03T16:25:24.741Z,2.47
2022-08-03T16:28:07.214Z,3.15
2022-08-03T16:30:36.079Z,2.25
2022-08-03T16:33:04.791Z,2.00
2022-08-03T16:35:33.456Z,2.85
2022-08-03T16:38:06.503Z,2.97
2022-08-03T16:40:38.142Z,2.47
2022-08-03T16:43:18.394Z,2.25
2022-08-03T16:45:47.931Z,2.35
2022-08-03T16:48:17.666Z,3.58
2022-08-03T16:50:47.118Z,2.25
2022-08-03T16:53:17.235Z,2.25
2022-08-03T16:56:05.574Z,3.03
2022-08-03T16:58:42.394Z,1.95
2022-08-03T17:01:21.500Z,1.35
2022-08-03T17:04:01.698Z,1.80
2022-08-03T17:06:44.750Z,1.77
2022-08-03T17:09:20.764Z,2.55
2022-08-03T17:11:50.992Z,2.10
2022-08-03T17:17:01.026Z,2.70
2022-08-03T17:19:32.584Z,3.58
2022-08-03T17:22:11.010Z,2.25
2022-08-03T17:24:45.008Z,1.85
2022-08-03T17:28:48.490Z,2.60
2022-08-03T17:30:12.135Z,2.67
2022-08-03T17:32:57.154Z,2.13
2022-08-03T17:35:34.560Z,3.50
2022-08-03T17:38:10.488Z,2.22
2022-08-03T17:40:50.155Z,2.60
2022-08-03T17:44:13.227Z,4.35
2022-08-03T17:46:10.954Z,2.55
2022-08-03T17:48:41.405Z,2.72
2022-08-03T17:51:20.290Z,1.90
2022-08-03T17:54:18.143Z,3.45
2022-08-03T17:57:22.377Z,1.70
2022-08-03T18:00:32.354Z,2.40
2022-08-03T18:03:15.365Z,5.05
2022-08-03T18:06:11.406Z,1.83
2022-08-03T18:08:43.552Z,2.33
2022-08-03T18:11:16.719Z,2.38
2022-08-03T18:13:53.510Z,2.58
2022-08-03T18:16:36.237Z,3.33
2022-08-03T18:19:09.293Z,2.53
2022-08-03T18:22:02.844Z,3.65
2022-08-03T18:24:28.649Z,2.65
2022-08-03T18:27:00.091Z,1.83
2022-08-03T18:29:31.178Z,2.47
2022-08-03T18:32:03.062Z,2.00
2022-08-03T18:34:34.471Z,2.25
2022-08-03T18:37:07.280Z,2.17
2022-08-03T18:39:39.001Z,2.47
2022-08-03T18:42:20.054Z,1.95
2022-08-03T18:44:56.396Z,1.30
2022-08-03T18:47:56.887Z,1.90
2022-08-03T18:50:37.034Z,2.97
2022-08-03T18:53:19.767Z,2.30
2022-08-03T18:56:03.573Z,2.92
2022-08-03T18:58:52.368Z,2.90
2022-08-03T19:02:00.769Z,3.30
2022-08-03T19:04:35.944Z,2.30
2022-08-03T19:07:08.496Z,3.53
2022-08-03T19:09:54.543Z,3.28
2022-08-03T19:12:39.876Z,3.42
2022-08-03T19:18:02.557Z,3.90
2022-08-03T19:20:34.885Z,3.33
2022-08-03T19:23:06.754Z,2.85
2022-08-03T19:25:39.313Z,3.67
2022-08-03T19:28:09.138Z,2.25
2022-08-03T19:30:40.081Z,4.45
2022-08-03T19:33:14.231Z,3.33
2022-08-03T19:38:33.660Z,4.25
2022-08-03T19:41:03.766Z,2.65
2022-08-03T19:43:52.959Z,3.35
2022-08-03T19:46:27.648Z,4.50
2022-08-03T19:49:15.196Z,3.65
2022-08-03T19:52:01.561Z,3.40
2022-08-03T19:54:53.150Z,5.25
2022-08-03T19:57:25.534Z,4.65
2022-08-03T19:59:56.592Z,5.80
2022-08-03T20:02:26.873Z,4.22
2022-08-03T20:04:57.945Z,5.00
2022-08-03T20:07:31.894Z,3.75
2022-08-03T20:10:04.541Z,4.00
2022-08-03T20:12:39.131Z,3.55
2022-08-03T20:15:09.106Z,5.05
2022-08-03T20:17:56.821Z,4.05
2022-08-03T20:20:33.112Z,5.53
2022-08-03T20:23:06.909Z,4.70
2022-08-03T20:25:57.123Z,3.72
2022-08-03T20:28:50.612Z,5.20
2022-08-03T20:31:25.248Z,5.07
2022-08-03T20:34:06.836Z,6.45
2022-08-03T20:36:38.224Z,5.63
2022-08-03T20:39:07.804Z,3.70
2022-08-03T20:41:37.440Z,4.72
2022-08-03T20:44:06.345Z,4.95
2022-08-03T20:46:50.225Z,3.85
2022-08-03T20:49:23.636Z,4.40
2022-08-03T20:51:53.646Z,5.30
2022-08-03T20:54:29.902Z,4.85
2022-08-03T20:57:04.113Z,4.90
2022-08-03T20:59:50.534Z,5.43
2022-08-03T21:02:30.250Z,5.47
2022-08-03T21:05:02.861Z,4.75
2022-08-03T21:08:05.853Z,3.67
2022-08-03T21:10:30.922Z,3.72
2022-08-03T21:13:01.803Z,2.05
2022-08-03T21:13:09.879Z,3.50
2022-08-03T21:13:23.383Z,5.22
2022-08-03T21:16:02.514Z,5.85
2022-08-03T21:18:51.417Z,4.90
2022-08-03T21:21:22.763Z,3.72
2022-08-03T21:23:53.426Z,3.72
2022-08-03T21:26:24.671Z,3.38
2022-08-03T21:28:55.277Z,4.60
2022-08-03T21:31:26.550Z,6.53
2022-08-03T21:34:05.374Z,4.25
2022-08-03T21:36:36.272Z,5.25
2022-08-03T21:39:10.434Z,5.18
2022-08-03T21:41:40.229Z,4.70
2022-08-03T21:44:09.737Z,4.53
2022-08-03T21:46:42.270Z,5.50
2022-08-03T21:50:05.454Z,6.45
2022-08-03T21:52:05.226Z,4.93
2022-08-03T21:54:37.177Z,4.30
2022-08-03T21:57:12.954Z,5.03
2022-08-03T21:59:47.776Z,5.00
2022-08-03T22:02:24.294Z,5.68
2022-08-03T22:04:56.443Z,8.45
2022-08-03T22:07:27.975Z,6.05
2022-08-03T22:09:58.572Z,7.17
2022-08-03T22:12:29.335Z,4.45
2022-08-03T22:15:02.127Z,6.25
2022-08-03T22:17:53.876Z,5.50
2022-08-03T22:20:22.007Z,6.10
2022-08-03T22:22:56.597Z,4.72
2022-08-03T22:25:29.172Z,4.05
2022-08-03T22:28:05.665Z,5.32
2022-08-03T22:30:34.600Z,4.40
2022-08-03T22:33:05.391Z,6.28
2022-08-03T22:35:47.199Z,4.45
2022-08-03T22:38:18.084Z,5.00
2022-08-03T22:40:49.780Z,5.13
2022-08-03T22:43:23.223Z,5.53
2022-08-03T22:46:09.220Z,4.57
2022-08-03T22:48:41.338Z,4.72
2022-08-03T22:51:10.457Z,5.15
2022-08-03T22:53:39.892Z,5.85
2022-08-03T22:56:08.756Z,4.28
2022-08-03T22:58:37.267Z,4.63
2022-08-03T23:01:11.461Z,5.00
2022-08-03T23:04:00.383Z,5.90
2022-08-03T23:06:37.719Z,5.07
2022-08-03T23:09:11.847Z,5.63
2022-08-03T23:11:45.437Z,5.72
2022-08-03T23:14:18.318Z,4.88
2022-08-03T23:16:47.818Z,6.15
2022-08-03T23:19:25.631Z,5.28
2022-08-03T23:22:02.673Z,6.30
2022-08-03T23:24:36.185Z,4.25
2022-08-03T23:27:06.751Z,5.43
2022-08-03T23:29:39.579Z,5.13
2022-08-03T23:32:10.394Z,6.20
2022-08-03T23:34:58.583Z,6.93
2022-08-03T23:37:28.771Z,5.60
2022-08-03T23:39:57.298Z,6.85
2022-08-03T23:42:26.256Z,6.00
2022-08-03T23:44:59.289Z,5.38
2022-08-03T23:47:46.934Z,8.27
2022-08-03T23:50:17.232Z,4.38
2022-08-03T23:53:09.717Z,5.63
2022-08-03T23:56:00.960Z,6.20
2022-08-03T23:58:32.387Z,5.38
